Antlers, Oklahoma
Current Conditions -  °F | °C
As of 12:15 PM on Saturday 25 Oct 2014 (Local Time) from KHHW Reporting Station
Clear Clear  
Wind Chill: 26°   Ceiling: Unl
Heat Index: 27°   Visibility: 10mi
Dew Point: 16°   Wind: 6mph
Humidity: 53%   Direction: 210°SSW
Pressure: 30.12"   Gusts: NA
Location:  34.23°N, 95.62°W
Report Text: KHHW 251715Z AUTO 21005KT 10SM CLR 27/16 A3012 RMK AO2 T02650162
Loading
Personal Weather Stations






























Interactive Weather Map
Tropical Storm Tracking
New forecast layout! Learn more

10-Day Weather Forecast

Advertisements
Track Severe Weather on mobile